createdAt,value
2023-04-01T00:00:59.478Z,93885.00
2023-04-01T00:01:59.480Z,93879.00
2023-04-01T00:02:59.548Z,93879.00
2023-04-01T00:04:00.547Z,93871.00
2023-04-01T00:04:59.540Z,93881.00
2023-04-01T00:05:59.547Z,93883.00
2023-04-01T00:06:59.565Z,93885.00
2023-04-01T00:07:59.549Z,93885.00
2023-04-01T00:08:59.548Z,93879.00
2023-04-01T00:09:59.617Z,93871.00
2023-04-01T00:10:59.649Z,93879.00
2023-04-01T00:11:59.618Z,93881.00
2023-04-01T00:12:59.655Z,93881.00
2023-04-01T00:13:59.651Z,93881.00
2023-04-01T00:14:59.698Z,93881.00
2023-04-01T00:16:00.337Z,93883.00
2023-04-01T00:16:59.699Z,93881.00
2023-04-01T00:17:59.759Z,93879.00
2023-04-01T00:18:59.689Z,93883.00
2023-04-01T00:19:59.737Z,93883.00
2023-04-01T00:20:59.753Z,93883.00
2023-04-01T00:21:59.763Z,93883.00
2023-04-01T00:22:59.767Z,93883.00
2023-04-01T00:23:59.797Z,93871.00
2023-04-01T00:24:59.796Z,93867.00
2023-04-01T00:25:59.808Z,93869.00
2023-04-01T00:26:59.827Z,93867.00
2023-04-01T00:27:59.855Z,93865.00
2023-04-01T00:28:59.852Z,93867.00
2023-04-01T00:29:59.859Z,93869.00
2023-04-01T00:30:59.924Z,93867.00
2023-04-01T00:32:00.023Z,93861.00
2023-04-01T00:32:59.999Z,93861.00
2023-04-01T00:33:59.963Z,93859.00
2023-04-01T00:34:59.945Z,93863.00
2023-04-01T00:36:00.013Z,93869.00
2023-04-01T00:37:00.008Z,93871.00
2023-04-01T00:38:00.018Z,93879.00
2023-04-01T00:39:00.006Z,93881.00
2023-04-01T00:40:00.056Z,93869.00
2023-04-01T00:41:00.129Z,93869.00
2023-04-01T00:42:00.133Z,93871.00
2023-04-01T00:43:00.212Z,93869.00
2023-04-01T00:44:00.143Z,93865.00
2023-04-01T00:45:00.178Z,93865.00
2023-04-01T00:46:00.164Z,93867.00
2023-04-01T00:47:00.297Z,93867.00
2023-04-01T00:48:00.290Z,93863.00
2023-04-01T00:49:00.191Z,93863.00
2023-04-01T00:50:00.235Z,93867.00
2023-04-01T00:51:00.257Z,93869.00
2023-04-01T00:52:00.303Z,93879.00
2023-04-01T00:53:00.275Z,93871.00
2023-04-01T00:54:00.286Z,93869.00
2023-04-01T00:55:00.315Z,93867.00
2023-04-01T00:56:00.327Z,93865.00
2023-04-01T00:57:00.398Z,93867.00
2023-04-01T00:58:00.386Z,93865.00
2023-04-01T00:59:00.372Z,93865.00
2023-04-01T01:00:00.422Z,93865.00
2023-04-01T01:01:00.410Z,93863.00
2023-04-01T01:02:00.447Z,93861.00
2023-04-01T01:03:00.428Z,93859.00
2023-04-01T01:04:00.442Z,93861.00
2023-04-01T01:05:00.488Z,93861.00
2023-04-01T01:06:00.458Z,93863.00
2023-04-01T01:07:00.484Z,93859.00
2023-04-01T01:08:00.537Z,93855.00
2023-04-01T01:09:00.549Z,93853.00
2023-04-01T01:10:00.546Z,93849.00
2023-04-01T01:11:00.571Z,93849.00
2023-04-01T01:12:00.611Z,93855.00
2023-04-01T01:13:00.649Z,93861.00
2023-04-01T01:14:00.626Z,93863.00
2023-04-01T01:15:00.672Z,93859.00
2023-04-01T01:16:00.654Z,93857.00
2023-04-01T01:17:00.697Z,93853.00
2023-04-01T01:18:00.738Z,93849.00
2023-04-01T01:19:00.689Z,93848.00
2023-04-01T01:20:01.026Z,93844.00
2023-04-01T01:21:00.735Z,93844.00
2023-04-01T01:22:00.776Z,93844.00
2023-04-01T01:23:00.770Z,93844.00
2023-04-01T01:24:00.774Z,93844.00
2023-04-01T01:25:00.810Z,93846.00
2023-04-01T01:26:00.838Z,93846.00
2023-04-01T01:27:00.866Z,93848.00
2023-04-01T01:28:00.871Z,93840.00
2023-04-01T01:29:00.869Z,93840.00
2023-04-01T01:30:00.932Z,93842.00
2023-04-01T01:31:00.967Z,93844.00
2023-04-01T01:32:00.906Z,93846.00
2023-04-01T01:33:00.926Z,93848.00
2023-04-01T01:34:00.960Z,93849.00
2023-04-01T01:35:00.961Z,93848.00
2023-04-01T01:36:01.035Z,93844.00
2023-04-01T01:37:00.981Z,93844.00
2023-04-01T01:38:01.018Z,93846.00
2023-04-01T01:39:01.021Z,93846.00
2023-04-01T01:40:01.045Z,93846.00
2023-04-01T01:41:01.096Z,93846.00
2023-04-01T01:42:01.092Z,93846.00
2023-04-01T01:43:01.121Z,93842.00
2023-04-01T01:44:01.121Z,93840.00
2023-04-01T01:45:01.177Z,93840.00
2023-04-01T01:46:01.187Z,93836.00
2023-04-01T01:47:01.194Z,93832.00
2023-04-01T01:48:01.235Z,93832.00
2023-04-01T01:49:01.220Z,93832.00
2023-04-01T01:50:01.281Z,93830.00
2023-04-01T01:51:01.240Z,93828.00
2023-04-01T01:52:01.270Z,93830.00
2023-04-01T01:53:01.315Z,93832.00
2023-04-01T01:54:01.338Z,93832.00
2023-04-01T01:55:01.335Z,93832.00
2023-04-01T01:56:01.351Z,93832.00
2023-04-01T01:57:01.383Z,93828.00
2023-04-01T01:58:01.426Z,93830.00
2023-04-01T01:59:01.412Z,93828.00
2023-04-01T02:00:01.442Z,93830.00
2023-04-01T02:01:01.456Z,93830.00
2023-04-01T02:02:01.468Z,93828.00
2023-04-01T02:03:01.493Z,93826.00
2023-04-01T02:04:01.540Z,93822.00
2023-04-01T02:05:01.573Z,93824.00
2023-04-01T02:06:01.541Z,93824.00
2023-04-01T02:07:01.550Z,93824.00
2023-04-01T02:08:01.540Z,93818.00
2023-04-01T02:09:01.540Z,93820.00
2023-04-01T02:10:01.588Z,93818.00
2023-04-01T02:11:01.649Z,93818.00
2023-04-01T02:12:01.685Z,93814.00
2023-04-01T02:13:01.643Z,93816.00
2023-04-01T02:14:01.659Z,93814.00
2023-04-01T02:15:01.717Z,93810.00
2023-04-01T02:16:01.701Z,93816.00
2023-04-01T02:17:01.704Z,93824.00
2023-04-01T02:18:01.755Z,93820.00
2023-04-01T02:19:01.780Z,93820.00
2023-04-01T02:20:01.779Z,93820.00
2023-04-01T02:21:01.806Z,93822.00
2023-04-01T02:22:01.840Z,93824.00
2023-04-01T02:23:01.815Z,93824.00
2023-04-01T02:24:01.842Z,93828.00
2023-04-01T02:25:01.873Z,93832.00
2023-04-01T02:26:01.909Z,93834.00
2023-04-01T02:27:01.930Z,93838.00
2023-04-01T02:28:01.949Z,93838.00
2023-04-01T02:29:01.970Z,93838.00
2023-04-01T02:30:02.000Z,93836.00
2023-04-01T02:31:01.987Z,93836.00
2023-04-01T02:32:02.022Z,93838.00
2023-04-01T02:33:02.118Z,93840.00
2023-04-01T02:34:02.072Z,93844.00
2023-04-01T02:35:02.110Z,93842.00
2023-04-01T02:36:02.225Z,93840.00
2023-04-01T02:37:02.102Z,93840.00
2023-04-01T02:38:02.160Z,93844.00
2023-04-01T02:39:02.151Z,93848.00
2023-04-01T02:40:02.164Z,93842.00
2023-04-01T02:41:02.235Z,93842.00
2023-04-01T02:42:02.180Z,93840.00
2023-04-01T02:43:02.213Z,93842.00
2023-04-01T02:44:02.245Z,93844.00
2023-04-01T02:45:02.280Z,93842.00
2023-04-01T02:46:02.280Z,93840.00
2023-04-01T02:47:02.382Z,93840.00
2023-04-01T02:48:02.412Z,93842.00
2023-04-01T02:49:02.383Z,93848.00
2023-04-01T02:50:02.458Z,93849.00
2023-04-01T02:51:02.458Z,93853.00
2023-04-01T02:52:02.423Z,93853.00
2023-04-01T02:53:02.437Z,93853.00
2023-04-01T02:54:02.468Z,93855.00
2023-04-01T02:55:02.519Z,93859.00
2023-04-01T02:56:02.524Z,93859.00
2023-04-01T02:57:02.569Z,93861.00
2023-04-01T02:58:02.567Z,93861.00
2023-04-01T02:59:02.589Z,93865.00
2023-04-01T03:00:02.613Z,93863.00
2023-04-01T03:01:02.707Z,93865.00
2023-04-01T03:02:02.661Z,93867.00
2023-04-01T03:03:02.810Z,93867.00
2023-04-01T03:04:02.749Z,93871.00
2023-04-01T03:05:02.737Z,93871.00
2023-04-01T03:06:02.761Z,93871.00
2023-04-01T03:07:02.788Z,93871.00
2023-04-01T03:08:02.819Z,93881.00
2023-04-01T03:09:02.837Z,93885.00
2023-04-01T03:10:02.873Z,93887.00
2023-04-01T03:11:02.866Z,93887.00
2023-04-01T03:12:02.871Z,93887.00
2023-04-01T03:13:02.906Z,93891.00
2023-04-01T03:14:02.961Z,93887.00
2023-04-01T03:15:10.929Z,93891.00
2023-04-01T03:16:03.998Z,93891.00
2023-04-01T03:17:02.985Z,93891.00
2023-04-01T03:18:03.005Z,93896.00
2023-04-01T03:19:02.935Z,93900.00
2023-04-01T03:20:02.916Z,93900.00
2023-04-01T03:21:02.933Z,93904.00
2023-04-01T03:22:02.879Z,93908.00
2023-04-01T03:23:02.884Z,93910.00
2023-04-01T03:24:02.922Z,93910.00
2023-04-01T03:25:02.892Z,93912.00
2023-04-01T03:26:02.869Z,93910.00
2023-04-01T03:27:02.880Z,93906.00
2023-04-01T03:28:02.880Z,93904.00
2023-04-01T03:29:02.867Z,93904.00
2023-04-01T03:30:02.926Z,93902.00
2023-04-01T03:31:02.880Z,93902.00
2023-04-01T03:32:02.824Z,93902.00
2023-04-01T03:33:02.959Z,93902.00
2023-04-01T03:34:02.810Z,93900.00
2023-04-01T03:35:02.879Z,93904.00
2023-04-01T03:36:02.873Z,93902.00
2023-04-01T03:37:02.917Z,93904.00
2023-04-01T03:38:02.940Z,93906.00
2023-04-01T03:39:02.988Z,93904.00
2023-04-01T03:40:03.044Z,93906.00
2023-04-01T03:41:03.038Z,93906.00
2023-04-01T03:42:03.073Z,93912.00
2023-04-01T03:43:03.174Z,93910.00
2023-04-01T03:44:03.154Z,93914.00
2023-04-01T03:45:03.126Z,93910.00
2023-04-01T03:46:03.242Z,93908.00
2023-04-01T03:47:03.205Z,93908.00
2023-04-01T03:48:03.278Z,93904.00
2023-04-01T03:49:03.246Z,93906.00
2023-04-01T03:50:03.268Z,93908.00
2023-04-01T03:51:03.327Z,93908.00
2023-04-01T03:52:03.324Z,93908.00
2023-04-01T03:53:03.350Z,93908.00
2023-04-01T03:54:03.398Z,93910.00
2023-04-01T03:55:03.410Z,93908.00
2023-04-01T03:56:03.433Z,93912.00
2023-04-01T03:57:03.520Z,93910.00
2023-04-01T03:58:03.495Z,93910.00
2023-04-01T03:59:03.515Z,93910.00
2023-04-01T04:00:03.543Z,93910.00
2023-04-01T04:01:03.563Z,93910.00
2023-04-01T04:02:03.575Z,93908.00
2023-04-01T04:03:03.741Z,93906.00
2023-04-01T04:04:03.618Z,93902.00
2023-04-01T04:05:03.649Z,93902.00
2023-04-01T04:06:04.498Z,93906.00
2023-04-01T04:07:03.687Z,93908.00
2023-04-01T04:08:03.741Z,93910.00
2023-04-01T04:09:03.743Z,93916.00
2023-04-01T04:10:03.811Z,93912.00
2023-04-01T04:11:03.832Z,93918.00
2023-04-01T04:12:03.813Z,93916.00
2023-04-01T04:13:03.828Z,93920.00
2023-04-01T04:14:03.878Z,93916.00
2023-04-01T04:15:03.911Z,93918.00
2023-04-01T04:16:03.953Z,93918.00
2023-04-01T04:17:03.943Z,93922.00
2023-04-01T04:18:04.008Z,93924.00
2023-04-01T04:19:04.015Z,93922.00
2023-04-01T04:20:04.026Z,93922.00
2023-04-01T04:21:04.041Z,93928.00
2023-04-01T04:22:04.087Z,93932.00
2023-04-01T04:23:04.109Z,93936.00
2023-04-01T04:24:04.122Z,93940.00
2023-04-01T04:25:04.208Z,93941.00
2023-04-01T04:26:04.275Z,93945.00
2023-04-01T04:27:04.202Z,93943.00
2023-04-01T04:28:04.219Z,93945.00
2023-04-01T04:29:04.246Z,93945.00
2023-04-01T04:30:04.282Z,93945.00
2023-04-01T04:31:04.276Z,93945.00
2023-04-01T04:32:04.459Z,93945.00
2023-04-01T04:33:04.380Z,93949.00
2023-04-01T04:34:04.336Z,93951.00
2023-04-01T04:35:04.387Z,93955.00
2023-04-01T04:36:04.491Z,93955.00
2023-04-01T04:37:04.471Z,93959.00
2023-04-01T04:38:04.511Z,93959.00
2023-04-01T04:39:04.602Z,93957.00
2023-04-01T04:40:04.528Z,93953.00
2023-04-01T04:41:04.556Z,93949.00
2023-04-01T04:42:04.583Z,93947.00
2023-04-01T04:43:04.611Z,93947.00
2023-04-01T04:44:04.678Z,93949.00
2023-04-01T04:45:04.679Z,93949.00
2023-04-01T04:46:04.719Z,93949.00
2023-04-01T04:47:04.782Z,93947.00
2023-04-01T04:48:04.841Z,93951.00
2023-04-01T04:49:04.835Z,93953.00
2023-04-01T04:50:04.872Z,93955.00
2023-04-01T04:51:04.858Z,93957.00
2023-04-01T04:52:04.889Z,93957.00
2023-04-01T04:53:04.889Z,93955.00
2023-04-01T04:54:04.932Z,93957.00
2023-04-01T04:55:04.990Z,93957.00
2023-04-01T04:56:05.002Z,93955.00
2023-04-01T04:57:05.098Z,93959.00
2023-04-01T04:58:05.109Z,93957.00
2023-04-01T04:59:05.096Z,93959.00
2023-04-01T05:00:05.210Z,93959.00
2023-04-01T05:01:05.155Z,93959.00
2023-04-01T05:02:05.229Z,93957.00
2023-04-01T05:03:05.276Z,93957.00
2023-04-01T05:04:05.239Z,93955.00
2023-04-01T05:05:05.264Z,93957.00
2023-04-01T05:06:05.269Z,93959.00
2023-04-01T05:07:05.304Z,93961.00
2023-04-01T05:08:05.377Z,93965.00
2023-04-01T05:09:05.404Z,93967.00
2023-04-01T05:10:05.394Z,93967.00
2023-04-01T05:11:05.441Z,93969.00
2023-04-01T05:12:05.470Z,93973.00
2023-04-01T05:13:05.470Z,93977.00
2023-04-01T05:14:05.536Z,93979.00
2023-04-01T05:15:05.571Z,93977.00
2023-04-01T05:16:05.591Z,93975.00
2023-04-01T05:17:05.725Z,93975.00
2023-04-01T05:18:05.688Z,93973.00
2023-04-01T05:19:05.654Z,93971.00
2023-04-01T05:20:05.673Z,93971.00
2023-04-01T05:21:05.757Z,93971.00
2023-04-01T05:22:05.731Z,93971.00
2023-04-01T05:23:05.766Z,93975.00
2023-04-01T05:24:05.771Z,93975.00
2023-04-01T05:25:05.826Z,93977.00
2023-04-01T05:26:05.822Z,93979.00
2023-04-01T05:27:05.862Z,93977.00
2023-04-01T05:28:05.907Z,93975.00
2023-04-01T05:29:05.925Z,93977.00
2023-04-01T05:30:05.933Z,93979.00
2023-04-01T05:31:06.045Z,93983.00
2023-04-01T05:32:05.999Z,93979.00
2023-04-01T05:33:06.109Z,93979.00
2023-04-01T05:34:06.063Z,93975.00
2023-04-01T05:35:06.072Z,93973.00
2023-04-01T05:36:06.184Z,93975.00
2023-04-01T05:37:06.139Z,93977.00
2023-04-01T05:38:06.859Z,93977.00
2023-04-01T05:39:06.188Z,93977.00
2023-04-01T05:40:06.242Z,93981.00
2023-04-01T05:41:06.216Z,93979.00
2023-04-01T05:42:06.243Z,93977.00
2023-04-01T05:43:06.295Z,93975.00
2023-04-01T05:44:06.319Z,93973.00
2023-04-01T05:45:06.345Z,93971.00
2023-04-01T05:46:06.365Z,93971.00
2023-04-01T05:47:06.383Z,93977.00
2023-04-01T05:48:06.457Z,93973.00
2023-04-01T05:49:06.453Z,93975.00
2023-04-01T05:50:06.475Z,93971.00
2023-04-01T05:51:06.474Z,93973.00
2023-04-01T05:52:06.489Z,93975.00
2023-04-01T05:53:06.543Z,93979.00
2023-04-01T05:54:06.554Z,93981.00
2023-04-01T05:55:06.612Z,93981.00
2023-04-01T05:56:06.594Z,93981.00
2023-04-01T05:57:06.653Z,93983.00
2023-04-01T05:58:06.634Z,93981.00
2023-04-01T05:59:06.707Z,93981.00
2023-04-01T06:00:06.711Z,93983.00
2023-04-01T06:01:11.500Z,93985.00
2023-04-01T06:02:07.690Z,93987.00
2023-04-01T06:03:06.787Z,93987.00
2023-04-01T06:04:06.915Z,93983.00
2023-04-01T06:05:06.672Z,93981.00
2023-04-01T06:06:06.741Z,93981.00
2023-04-01T06:07:06.704Z,93979.00
2023-04-01T06:08:06.671Z,93979.00
2023-04-01T06:09:06.650Z,93981.00
2023-04-01T06:10:06.704Z,93983.00
2023-04-01T06:11:06.647Z,93985.00
2023-04-01T06:12:06.663Z,93987.00
2023-04-01T06:13:06.650Z,93987.00
2023-04-01T06:14:06.675Z,93987.00
2023-04-01T06:15:06.629Z,93988.00
2023-04-01T06:16:06.648Z,93990.00
2023-04-01T06:17:06.629Z,93988.00
2023-04-01T06:18:06.611Z,93988.00
2023-04-01T06:19:06.573Z,93988.00
2023-04-01T06:20:06.633Z,93990.00
2023-04-01T06:21:06.606Z,93994.00
2023-04-01T06:22:06.630Z,93994.00
2023-04-01T06:23:06.651Z,93994.00
2023-04-01T06:24:06.666Z,93992.00
2023-04-01T06:25:06.718Z,93992.00
2023-04-01T06:26:06.704Z,93990.00
2023-04-01T06:27:06.765Z,93998.00
2023-04-01T06:28:08.989Z,94000.00
2023-04-01T06:29:06.817Z,93998.00
2023-04-01T06:30:06.874Z,94000.00
2023-04-01T06:31:06.926Z,93994.00
2023-04-01T06:32:06.944Z,93998.00
2023-04-01T06:33:06.995Z,93998.00
2023-04-01T06:34:06.958Z,94002.00
2023-04-01T06:35:06.994Z,94002.00
2023-04-01T06:36:07.125Z,94004.00
2023-04-01T06:37:07.053Z,94000.00
2023-04-01T06:38:07.068Z,93996.00
2023-04-01T06:39:08.395Z,93998.00
2023-04-01T06:40:07.078Z,93994.00
2023-04-01T06:41:07.061Z,93996.00
2023-04-01T06:42:07.051Z,93987.00
2023-04-01T06:43:07.044Z,93985.00
2023-04-01T06:44:07.030Z,93981.00
2023-04-01T06:45:07.040Z,93975.00
2023-04-01T06:46:07.048Z,93979.00
2023-04-01T06:47:07.053Z,93977.00
2023-04-01T06:48:07.063Z,93975.00
2023-04-01T06:49:07.021Z,93971.00
2023-04-01T06:50:06.976Z,93973.00
2023-04-01T06:51:06.999Z,93975.00
2023-04-01T06:52:06.967Z,93975.00
2023-04-01T06:53:06.962Z,93975.00
2023-04-01T06:54:06.989Z,93973.00
2023-04-01T06:55:06.950Z,93971.00
2023-04-01T06:56:06.932Z,93969.00
2023-04-01T06:57:06.973Z,93965.00
2023-04-01T06:58:06.916Z,93967.00
2023-04-01T06:59:06.920Z,93973.00
2023-04-01T07:00:06.908Z,93977.00
2023-04-01T07:01:06.923Z,93977.00
2023-04-01T07:02:06.900Z,93975.00
2023-04-01T07:03:07.129Z,93973.00
2023-04-01T07:04:06.957Z,93975.00
2023-04-01T07:05:06.913Z,93975.00
2023-04-01T07:06:06.851Z,93973.00
2023-04-01T07:07:06.867Z,93973.00
2023-04-01T07:08:06.852Z,93973.00
2023-04-01T07:09:06.863Z,93973.00
2023-04-01T07:10:06.855Z,93973.00
2023-04-01T07:11:06.855Z,93977.00
2023-04-01T07:12:06.856Z,93977.00
2023-04-01T07:13:06.837Z,93975.00
2023-04-01T07:14:06.797Z,93975.00
2023-04-01T07:15:06.852Z,93973.00
2023-04-01T07:16:06.795Z,93975.00
2023-04-01T07:17:06.884Z,93973.00
2023-04-01T07:18:06.876Z,93975.00
2023-04-01T07:19:06.802Z,93973.00
2023-04-01T07:20:06.816Z,93975.00
2023-04-01T07:21:06.769Z,93973.00
2023-04-01T07:22:06.826Z,93973.00
2023-04-01T07:23:06.752Z,93977.00
2023-04-01T07:24:06.757Z,93975.00
2023-04-01T07:25:06.746Z,93975.00
2023-04-01T07:26:06.741Z,93975.00
2023-04-01T07:27:06.712Z,93975.00
2023-04-01T07:28:06.745Z,93975.00
2023-04-01T07:29:06.720Z,93973.00
2023-04-01T07:30:06.697Z,93973.00
2023-04-01T07:31:06.720Z,93975.00
2023-04-01T07:32:06.672Z,93975.00
2023-04-01T07:33:06.742Z,93975.00
2023-04-01T07:34:06.695Z,93977.00
2023-04-01T07:35:06.662Z,93979.00
2023-04-01T07:36:06.685Z,93981.00
2023-04-01T07:37:06.644Z,93983.00
2023-04-01T07:38:06.656Z,93981.00
2023-04-01T07:39:06.652Z,93987.00
2023-04-01T07:40:06.638Z,93988.00
2023-04-01T07:41:06.643Z,93988.00
2023-04-01T07:42:06.624Z,93988.00
2023-04-01T07:43:06.626Z,93990.00
2023-04-01T07:44:06.572Z,93988.00
2023-04-01T07:45:06.598Z,93990.00
2023-04-01T07:46:06.610Z,93990.00
2023-04-01T07:47:06.588Z,93988.00
2023-04-01T07:48:06.588Z,93988.00
2023-04-01T07:49:06.594Z,93988.00
2023-04-01T07:50:06.550Z,93990.00
2023-04-01T07:51:06.555Z,93990.00
2023-04-01T07:52:06.561Z,93988.00
2023-04-01T07:53:06.622Z,93992.00
2023-04-01T07:54:06.598Z,93994.00
2023-04-01T07:55:06.626Z,93994.00
2023-04-01T07:56:06.656Z,93990.00
2023-04-01T07:57:06.753Z,93992.00
2023-04-01T07:58:06.710Z,93992.00
2023-04-01T07:59:06.705Z,93992.00
2023-04-01T08:00:06.704Z,93994.00
2023-04-01T08:01:06.693Z,93994.00
2023-04-01T08:02:06.762Z,93996.00
2023-04-01T08:03:06.848Z,93994.00
2023-04-01T08:04:06.975Z,93992.00
2023-04-01T08:05:06.792Z,93988.00
2023-04-01T08:06:06.808Z,93985.00
2023-04-01T08:07:06.816Z,93983.00
2023-04-01T08:08:06.819Z,93983.00
2023-04-01T08:09:06.872Z,93983.00
2023-04-01T08:10:06.884Z,93985.00
2023-04-01T08:11:06.877Z,93981.00
2023-04-01T08:12:06.901Z,93983.00
2023-04-01T08:13:06.913Z,93981.00
2023-04-01T08:14:06.929Z,93983.00
2023-04-01T08:15:06.933Z,93979.00
2023-04-01T08:16:06.986Z,93979.00
2023-04-01T08:17:07.131Z,93979.00
2023-04-01T08:18:07.019Z,93979.00
2023-04-01T08:19:06.956Z,93977.00
2023-04-01T08:20:06.990Z,93975.00
2023-04-01T08:21:06.997Z,93979.00
2023-04-01T08:22:07.014Z,93977.00
2023-04-01T08:23:07.049Z,93975.00
2023-04-01T08:24:07.067Z,93975.00
2023-04-01T08:25:07.106Z,93971.00
2023-04-01T08:26:07.106Z,93969.00
2023-04-01T08:27:07.076Z,93965.00
2023-04-01T08:28:07.113Z,93965.00
2023-04-01T08:29:07.135Z,93961.00
2023-04-01T08:30:08.307Z,93959.00
2023-04-01T08:31:07.156Z,93957.00
2023-04-01T08:32:07.183Z,93957.00
2023-04-01T08:33:07.164Z,93951.00
2023-04-01T08:34:07.129Z,93947.00
2023-04-01T08:35:07.105Z,93947.00
2023-04-01T08:36:07.187Z,93949.00
2023-04-01T08:37:07.108Z,93953.00
2023-04-01T08:38:07.080Z,93951.00
2023-04-01T08:39:07.112Z,93951.00
2023-04-01T08:40:07.078Z,93949.00
2023-04-01T08:41:07.076Z,93945.00
2023-04-01T08:42:07.089Z,93945.00
2023-04-01T08:43:07.060Z,93947.00
2023-04-01T08:44:07.051Z,93945.00
2023-04-01T08:45:07.033Z,93947.00
2023-04-01T08:46:07.077Z,93945.00
2023-04-01T08:47:07.035Z,93940.00
2023-04-01T08:48:07.056Z,93943.00
2023-04-01T08:49:07.006Z,93943.00
2023-04-01T08:50:07.062Z,93947.00
2023-04-01T08:51:07.025Z,93943.00
2023-04-01T08:52:07.020Z,93945.00
2023-04-01T08:53:06.992Z,93943.00
2023-04-01T08:54:06.975Z,93945.00
2023-04-01T08:55:07.043Z,93943.00
2023-04-01T08:56:06.989Z,93945.00
2023-04-01T08:57:07.018Z,93947.00
2023-04-01T08:58:06.995Z,93943.00
2023-04-01T08:59:06.965Z,93941.00
2023-04-01T09:00:06.963Z,93940.00
2023-04-01T09:01:06.941Z,93938.00
2023-04-01T09:02:06.934Z,93940.00
2023-04-01T09:03:07.212Z,93940.00
2023-04-01T09:04:06.982Z,93938.00
2023-04-01T09:05:06.942Z,93940.00
2023-04-01T09:06:06.917Z,93941.00
2023-04-01T09:07:06.913Z,93941.00
2023-04-01T09:08:06.881Z,93936.00
2023-04-01T09:09:06.879Z,93936.00
2023-04-01T09:10:06.920Z,93938.00
2023-04-01T09:11:06.929Z,93938.00
2023-04-01T09:12:06.928Z,93938.00
2023-04-01T09:13:06.849Z,93936.00
2023-04-01T09:14:06.873Z,93932.00
2023-04-01T09:15:06.859Z,93934.00
2023-04-01T09:16:06.861Z,93930.00
2023-04-01T09:17:06.809Z,93928.00
2023-04-01T09:18:06.894Z,93922.00
2023-04-01T09:19:06.987Z,93920.00
2023-04-01T09:20:06.908Z,93920.00
2023-04-01T09:21:06.817Z,93920.00
2023-04-01T09:22:06.818Z,93922.00
2023-04-01T09:23:06.818Z,93922.00
2023-04-01T09:24:06.905Z,93918.00
2023-04-01T09:25:06.780Z,93910.00
2023-04-01T09:26:06.840Z,93914.00
2023-04-01T09:27:06.804Z,93910.00
2023-04-01T09:28:06.807Z,93910.00
2023-04-01T09:29:06.741Z,93908.00
2023-04-01T09:30:06.833Z,93908.00
2023-04-01T09:31:06.804Z,93908.00
2023-04-01T09:32:06.743Z,93906.00
2023-04-01T09:33:06.819Z,93904.00
2023-04-01T09:34:06.750Z,93900.00
2023-04-01T09:35:06.710Z,93904.00
2023-04-01T09:36:06.803Z,93898.00
2023-04-01T09:37:06.708Z,93900.00
2023-04-01T09:38:06.717Z,93898.00
2023-04-01T09:39:06.691Z,93898.00
2023-04-01T09:40:06.719Z,93891.00
2023-04-01T09:41:06.694Z,93896.00
2023-04-01T09:42:06.711Z,93898.00
2023-04-01T09:43:06.689Z,93893.00
2023-04-01T09:44:06.680Z,93894.00
2023-04-01T09:45:06.663Z,93894.00
2023-04-01T09:46:06.674Z,93893.00
2023-04-01T09:47:06.636Z,93887.00
2023-04-01T09:48:06.713Z,93885.00
2023-04-01T09:49:06.680Z,93883.00
2023-04-01T09:50:06.637Z,93887.00
2023-04-01T09:51:06.667Z,93885.00
2023-04-01T09:52:06.608Z,93883.00
2023-04-01T09:53:06.614Z,93881.00
2023-04-01T09:54:06.602Z,93881.00
2023-04-01T09:55:06.616Z,93879.00
2023-04-01T09:56:06.597Z,93869.00
2023-04-01T09:57:06.595Z,93869.00
2023-04-01T09:58:06.554Z,93869.00
2023-04-01T09:59:06.583Z,93867.00
2023-04-01T10:00:06.581Z,93863.00
2023-04-01T10:01:06.546Z,93861.00
2023-04-01T10:02:06.624Z,93859.00
2023-04-01T10:03:06.607Z,93861.00
2023-04-01T10:04:06.533Z,93859.00
2023-04-01T10:05:06.688Z,93857.00
2023-04-01T10:06:06.571Z,93859.00
2023-04-01T10:07:06.483Z,93859.00
2023-04-01T10:08:06.503Z,93857.00
2023-04-01T10:09:06.496Z,93853.00
2023-04-01T10:10:06.491Z,93855.00
2023-04-01T10:11:06.522Z,93849.00
2023-04-01T10:12:06.485Z,93849.00
2023-04-01T10:13:06.473Z,93853.00
2023-04-01T10:14:06.501Z,93849.00
2023-04-01T10:15:06.476Z,93848.00
2023-04-01T10:16:06.544Z,93848.00
2023-04-01T10:17:06.427Z,93844.00
2023-04-01T10:18:06.476Z,93846.00
2023-04-01T10:19:06.458Z,93849.00
2023-04-01T10:20:06.434Z,93848.00
2023-04-01T10:21:06.465Z,93846.00
2023-04-01T10:22:06.424Z,93840.00
2023-04-01T10:23:06.406Z,93840.00
2023-04-01T10:24:06.392Z,93838.00
2023-04-01T10:25:06.510Z,93836.00
2023-04-01T10:26:06.365Z,93836.00
2023-04-01T10:27:06.367Z,93834.00
2023-04-01T10:28:06.372Z,93834.00
2023-04-01T10:29:06.371Z,93834.00
2023-04-01T10:30:06.349Z,93832.00
2023-04-01T10:31:06.349Z,93834.00
2023-04-01T10:32:06.418Z,93834.00
2023-04-01T10:33:06.405Z,93830.00
2023-04-01T10:34:06.467Z,93824.00
2023-04-01T10:35:06.454Z,93826.00
2023-04-01T10:36:06.506Z,93826.00
2023-04-01T10:37:06.545Z,93824.00
2023-04-01T10:38:06.536Z,93822.00
2023-04-01T10:39:06.583Z,93826.00
2023-04-01T10:40:06.647Z,93822.00
2023-04-01T10:41:06.608Z,93822.00
2023-04-01T10:42:06.670Z,93820.00
2023-04-01T10:43:06.675Z,93822.00
2023-04-01T10:44:06.726Z,93816.00
2023-04-01T10:45:06.748Z,93816.00
2023-04-01T10:46:06.772Z,93818.00
2023-04-01T10:47:06.796Z,93816.00
2023-04-01T10:48:06.868Z,93814.00
2023-04-01T10:49:06.857Z,93808.00
2023-04-01T10:50:06.904Z,93808.00
2023-04-01T10:51:06.919Z,93808.00
2023-04-01T10:52:06.987Z,93812.00
2023-04-01T10:53:07.430Z,93808.00
2023-04-01T10:54:07.039Z,93806.00
2023-04-01T10:55:07.121Z,93810.00
2023-04-01T10:56:07.196Z,93804.00
2023-04-01T10:57:07.253Z,93804.00
2023-04-01T10:58:07.280Z,93804.00
2023-04-01T10:59:07.333Z,93801.00
2023-04-01T11:00:07.406Z,93802.00
2023-04-01T11:01:07.437Z,93801.00
2023-04-01T11:02:11.321Z,93799.00
2023-04-01T11:03:07.581Z,93801.00
2023-04-01T11:04:07.472Z,93799.00
2023-04-01T11:05:07.495Z,93799.00
2023-04-01T11:06:07.441Z,93799.00
2023-04-01T11:07:07.481Z,93795.00
2023-04-01T11:08:07.513Z,93797.00
2023-04-01T11:09:07.436Z,93795.00
2023-04-01T11:10:07.428Z,93797.00
2023-04-01T11:11:07.413Z,93789.00
2023-04-01T11:12:07.438Z,93791.00
2023-04-01T11:13:07.401Z,93781.00
2023-04-01T11:14:07.374Z,93785.00
2023-04-01T11:15:07.365Z,93781.00
2023-04-01T11:16:07.474Z,93783.00
2023-04-01T11:17:07.434Z,93779.00
2023-04-01T11:18:07.562Z,93785.00
2023-04-01T11:19:07.527Z,93779.00
2023-04-01T11:20:07.585Z,93785.00
2023-04-01T11:21:07.640Z,93773.00
2023-04-01T11:22:07.716Z,93771.00
2023-04-01T11:23:07.748Z,93773.00
2023-04-01T11:24:07.882Z,93773.00
2023-04-01T11:25:07.866Z,93773.00
2023-04-01T11:26:08.190Z,93773.00
2023-04-01T11:27:08.095Z,93769.00
2023-04-01T11:28:08.054Z,93771.00
2023-04-01T11:29:08.101Z,93775.00
2023-04-01T11:30:08.109Z,93769.00
2023-04-01T11:31:08.212Z,93767.00
2023-04-01T11:32:08.224Z,93769.00
2023-04-01T11:33:08.329Z,93769.00
2023-04-01T11:34:08.352Z,93765.00
2023-04-01T11:35:08.372Z,93767.00
2023-04-01T11:36:08.429Z,93765.00
2023-04-01T11:37:08.504Z,93763.00
2023-04-01T11:38:08.547Z,93765.00
2023-04-01T11:39:08.577Z,93763.00
2023-04-01T11:40:08.638Z,93767.00
2023-04-01T11:41:08.693Z,93759.00
2023-04-01T11:42:08.719Z,93767.00
2023-04-01T11:43:09.362Z,93759.00
2023-04-01T11:44:08.869Z,93761.00
2023-04-01T11:45:08.874Z,93765.00